Zeus — V2OR — position and weather

sailwx.info

Track history (hours):
 
Tides and Currents Weather Stations Pressure Air Temp Water Temp Dewpoint Dewpoint Depression Visibility Wind Speed Wind Dir Waves Ship Positions

Zeus

Last reported at 2017-Sep-19 11:41 UTC. Time now 2017-Sep-20 20:26 UTC.
Position N 53°37' W 000°07'.

Length 89 m; draft 3.6 m.

Type: Cargo ship. MMSI: 304011025.

Date/timePositionNaut miles runAvg speedWind from/ knotsBaromVisibWave heightAir tempDewpointWater temp
2017-Sep-19 11:41N 53°37' W 000°07'210.1
2017-Sep-19 11:30N 53°38' W 000°09'1 2.4
2017-Sep-19 10:59N 53°38' W 000°11'0 0.5
2017-Sep-19 10:30N 53°38' W 000°12'0 0.0
2017-Sep-19 10:00N 53°38' W 000°12'0 0.0
2017-Sep-19 09:30N 53°38' W 000°12'0 0.0
2017-Sep-19 09:00N 53°38' W 000°12'0 0.0
2017-Sep-19 05:20N 53°38' W 000°12'0 0.0
2017-Sep-19 04:41N 53°38' W 000°12'0 0.0
2017-Sep-19 04:25N 53°38' W 000°12'0 0.0
2017-Sep-19 04:00N 53°38' W 000°12'0 0.0
2017-Sep-19 03:30N 53°38' W 000°12'0 0.0
2017-Sep-19 02:59N 53°38' W 000°12'0 0.0
2017-Sep-19 02:30N 53°38' W 000°12'0 0.7
2017-Sep-19 02:00N 53°38' W 000°11'1 1.4
2017-Sep-19 01:30N 53°38' W 000°10'61 6.6
2017-Sep-18 16:11N 53°01' E 001°11'1 7.7
2017-Sep-18 16:00N 53°00' E 001°13'4 7.7
2017-Sep-18 15:30N 52°59' E 001°19'4 8.1
2017-Sep-18 15:00N 52°57' E 001°25'5 9.5
2017-Sep-18 14:30N 52°55' E 001°32'511.0
2017-Sep-18 14:00N 52°52' E 001°40'611.9
2017-Sep-18 13:30N 52°50' E 001°49'115 9.7
2017-Sep-18 01:38N 53°30' E 004°48'210.1
2017-Sep-18 01:24N 53°31' E 004°52'410.4
2017-Sep-18 01:00N 53°32' E 004°59'511.0
2017-Sep-18 00:30N 53°34' E 005°07'105 9.8
2017-Sep-17 13:46N 53°51' E 008°02'312.0
2017-Sep-17 13:30N 53°49' E 008°06'612.9
2017-Sep-17 13:00N 53°45' E 008°14'713.2
2017-Sep-17 12:30N 53°40' E 008°22'612.7
2017-Sep-17 12:00N 53°36' E 008°30'510.2
2017-Sep-17 11:30N 53°32' E 008°34'510.5
2017-Sep-17 11:00N 53°27' E 008°29'510.3
2017-Sep-17 10:30N 53°22' E 008°30'4 8.8
2017-Sep-17 10:01N 53°17' E 008°29'4 8.4
2017-Sep-17 09:30N 53°13' E 008°29'4 8.3
2017-Sep-17 09:00N 53°10' E 008°35'4 7.6
2017-Sep-17 08:30N 53°08' E 008°39'2 4.5
2017-Sep-17 08:00N 53°07' E 008°43'0 0.6
2017-Sep-17 07:30N 53°07' E 008°43'0 0.0
2017-Sep-17 06:58N 53°07' E 008°43'0 0.0
2017-Sep-17 06:28N 53°07' E 008°43'0 0.0
2017-Sep-17 05:58N 53°07' E 008°43'0 0.0
2017-Sep-17 05:30N 53°07' E 008°43'0 0.0
2017-Sep-17 04:58N 53°07' E 008°43'0 0.0
2017-Sep-17 04:28N 53°07' E 008°43'0 0.0
2017-Sep-17 03:59N 53°07' E 008°43'0 0.0
2017-Sep-17 03:30N 53°07' E 008°43'0 0.0
2017-Sep-17 02:59N 53°07' E 008°43'0 0.0
2017-Sep-17 02:30N 53°07' E 008°43'0 0.0
2017-Sep-17 01:59N 53°07' E 008°43'0 0.0
2017-Sep-17 01:29N 53°07' E 008°43'0 0.0
2017-Sep-17 00:54N 53°07' E 008°43'0 0.0
2017-Sep-17 00:30N 53°07' E 008°43'0 0.0
2017-Sep-16 23:59N 53°07' E 008°43'0 0.0
2017-Sep-16 23:28N 53°07' E 008°43'0 0.0
2017-Sep-16 22:58N 53°07' E 008°43'0 0.0
2017-Sep-16 22:28N 53°07' E 008°43'0 0.0
2017-Sep-16 21:59N 53°07' E 008°43'0 0.0
2017-Sep-16 21:29N 53°07' E 008°43'0 0.0
2017-Sep-16 20:58N 53°07' E 008°43'0 0.0
2017-Sep-16 20:30N 53°07' E 008°43'0 0.0
2017-Sep-16 20:00N 53°07' E 008°43'0 0.3
2017-Sep-16 19:30N 53°08' E 008°43'0 0.2
2017-Sep-16 19:00N 53°08' E 008°43'0 0.0
2017-Sep-16 18:29N 53°08' E 008°43'0 0.0
2017-Sep-16 17:59N 53°08' E 008°43'0 0.0
2017-Sep-16 17:24N 53°08' E 008°43'0 0.0
2017-Sep-16 17:00N 53°08' E 008°43'0 0.0
2017-Sep-16 16:29N 53°08' E 008°43'0 0.0
2017-Sep-16 15:59N 53°08' E 008°43'0 0.0
2017-Sep-16 15:28N 53°08' E 008°43'0 0.0
2017-Sep-16 15:01N 53°08' E 008°43'1 1.0
2017-Sep-16 14:31N 53°07' E 008°43'0 0.0
2017-Sep-16 14:01N 53°07' E 008°43'1 1.3
2017-Sep-16 13:31N 53°07' E 008°42'4 7.4
2017-Sep-16 13:00N 53°10' E 008°37'4 8.8
2017-Sep-16 12:30N 53°12' E 008°31'4 8.5
2017-Sep-16 12:01N 53°16' E 008°29'4 8.5
2017-Sep-16 11:30N 53°20' E 008°30'4 8.1
2017-Sep-16 11:00N 53°24' E 008°30'4 7.7
2017-Sep-16 10:30N 53°28' E 008°30'3 6.5
2017-Sep-16 10:00N 53°31' E 008°33'0 0.0
2017-Sep-16 09:25N 53°31' E 008°33'0 0.0
2017-Sep-16 09:00N 53°31' E 008°33'0 0.2
2017-Sep-16 08:28N 53°31' E 008°33'0 0.0
2017-Sep-16 08:00N 53°31' E 008°33'0 0.0
2017-Sep-16 07:29N 53°31' E 008°33'0 0.0
2017-Sep-16 06:54N 53°31' E 008°33'0 0.0
2017-Sep-16 06:25N 53°31' E 008°33'0 0.0
2017-Sep-16 05:59N 53°31' E 008°33'0 0.0
2017-Sep-16 05:24N 53°31' E 008°33'0 0.0
2017-Sep-16 04:58N 53°31' E 008°33'0 0.0
2017-Sep-16 04:23N 53°31' E 008°33'0 0.0
2017-Sep-16 03:55N 53°31' E 008°33'0 0.1
2017-Sep-16 03:30N 53°31' E 008°33'0 0.2
2017-Sep-16 02:58N 53°31' E 008°33'0 0.0
2017-Sep-16 02:30N 53°31' E 008°33'0 0.0
2017-Sep-16 01:58N 53°31' E 008°33'0 0.0
2017-Sep-16 01:27N 53°31' E 008°33'0 0.0
2017-Sep-16 00:59N 53°31' E 008°33'0 0.0
2017-Sep-16 00:30N 53°31' E 008°33'0 0.0
2017-Sep-15 23:58N 53°31' E 008°33'0 0.0
2017-Sep-15 23:29N 53°31' E 008°33'0 0.0
2017-Sep-15 22:54N 53°31' E 008°33'0 0.0
2017-Sep-15 22:30N 53°31' E 008°33'0 0.0
2017-Sep-15 21:58N 53°31' E 008°33'0 0.0
2017-Sep-15 21:24N 53°31' E 008°33'0 0.0
2017-Sep-15 21:00N 53°31' E 008°33'0 0.0
2017-Sep-15 20:28N 53°31' E 008°33'0 0.2
2017-Sep-15 19:57N 53°31' E 008°33'0 0.0
2017-Sep-15 19:29N 53°31' E 008°33'0 0.0
2017-Sep-15 19:00N 53°31' E 008°33'0 0.0
2017-Sep-15 18:30N 53°31' E 008°33'0 0.0
2017-Sep-15 17:58N 53°31' E 008°33'0 0.0
2017-Sep-15 17:26N 53°31' E 008°33'0 0.0
2017-Sep-15 17:00N 53°31' E 008°33'0 0.0
2017-Sep-15 16:28N 53°31' E 008°33'0 0.0
2017-Sep-15 15:59N 53°31' E 008°33'0 0.0
2017-Sep-15 15:30N 53°31' E 008°33'0 0.1
2017-Sep-15 15:00N 53°31' E 008°33'0 0.2
2017-Sep-15 14:29N 53°31' E 008°33'0 0.0
2017-Sep-15 13:59N 53°31' E 008°33'0 0.0
2017-Sep-15 13:25N 53°31' E 008°33'0 0.0
2017-Sep-15 12:55N 53°31' E 008°33'0 0.0
2017-Sep-15 12:20N 53°31' E 008°33'0 0.0
2017-Sep-15 11:56N 53°31' E 008°33'0 0.0
2017-Sep-15 11:27N 53°31' E 008°33'0 0.0
2017-Sep-15 10:57N 53°31' E 008°33'0 0.0
2017-Sep-15 10:30N 53°31' E 008°33'0 0.0
2017-Sep-15 09:58N 53°31' E 008°33'0 0.0
2017-Sep-15 09:27N 53°31' E 008°33'0 0.0
2017-Sep-15 08:54N 53°31' E 008°33'0 0.0
2017-Sep-15 08:30N 53°31' E 008°33'0 0.0
2017-Sep-15 07:59N 53°31' E 008°33'0 0.0
2017-Sep-15 07:29N 53°31' E 008°33'0 0.1
2017-Sep-15 06:53N 53°31' E 008°33'0 0.2
2017-Sep-15 06:29N 53°31' E 008°33'0 0.0
2017-Sep-15 05:59N 53°31' E 008°33'0 0.0
2017-Sep-15 05:28N 53°31' E 008°33'0 0.0
2017-Sep-15 04:59N 53°31' E 008°33'0 0.0
2017-Sep-15 04:25N 53°31' E 008°33'0 0.0
2017-Sep-15 03:58N 53°31' E 008°33'0 0.0
2017-Sep-15 03:25N 53°31' E 008°33'0 0.0
2017-Sep-15 02:58N 53°31' E 008°33'0 0.4
2017-Sep-15 02:30N 53°31' E 008°33'3 5.7
2017-Sep-15 02:00N 53°34' E 008°33'4 7.2
2017-Sep-15 01:30N 53°37' E 008°29'4 7.2
2017-Sep-15 01:00N 53°39' E 008°24'3 6.8
2017-Sep-15 00:30N 53°41' E 008°21'3 6.4
2017-Sep-15 00:00N 53°43' E 008°16'4 7.2
2017-Sep-14 23:30N 53°46' E 008°11'4 8.2
2017-Sep-14 23:00N 53°49' E 008°07'5 9.3
2017-Sep-14 22:30N 53°51' E 008°00'5 9.3
2017-Sep-14 21:59N 53°52' E 007°52'43 4.7
2017-Sep-14 12:54N 53°27' E 006°54'3 8.2
2017-Sep-14 12:30N 53°24' E 006°57'4 8.2
2017-Sep-14 12:00N 53°20' E 006°60'16 7.8
2017-Sep-14 09:57N 53°14' E 007°24'6 8.1
2017-Sep-14 09:13N 53°08' E 007°22'1 0.0
2017-Sep-13 03:26N 53°07' E 007°22'17 5.8
2017-Sep-13 00:30N 53°19' E 007°03'4 7.3
2017-Sep-13 00:00N 53°22' E 006°59'296 7.1
2017-Sep-11 06:34N 58°14' E 005°27'0 6.8
2017-Sep-11 06:30N 58°14' E 005°27'3 6.7
2017-Sep-11 06:00N 58°18' E 005°27'3 6.2
2017-Sep-11 05:30N 58°21' E 005°27'3 5.8
2017-Sep-11 05:00N 58°24' E 005°26'3 5.6
2017-Sep-11 04:30N 58°26' E 005°26'3 5.1
2017-Sep-11 04:01N 58°29' E 005°26'2 4.6
2017-Sep-11 03:30N 58°31' E 005°26'3 5.2
2017-Sep-11 03:00N 58°34' E 005°24'2 5.0
2017-Sep-11 02:31N 58°36' E 005°22'3 5.2
2017-Sep-11 02:00N 58°38' E 005°21'3 5.5
2017-Sep-11 01:30N 58°41' E 005°19'3 6.4
2017-Sep-11 01:01N 58°44' E 005°17'3 6.1
2017-Sep-11 00:30N 58°47' E 005°15'3 6.2
2017-Sep-11 00:00N 58°50' E 005°13'3 6.5
2017-Sep-10 23:31N 58°53' E 005°10'3 6.1
2017-Sep-10 23:00N 58°55' E 005°07'3 6.2
2017-Sep-10 22:30N 58°58' E 005°03'3 6.6
2017-Sep-10 22:00N 59°01' E 004°60'3 6.5
2017-Sep-10 21:30N 59°03' E 004°57'3 6.6
2017-Sep-10 21:00N 59°06' E 004°53'23 6.7
2017-Sep-10 17:37N 59°28' E 004°43'1 8.6
2017-Sep-10 17:30N 59°29' E 004°43'4 8.8
2017-Sep-10 17:00N 59°34' E 004°44'5 9.0
2017-Sep-10 16:30N 59°38' E 004°44'5 9.2
2017-Sep-10 16:00N 59°43' E 004°43'5 9.1
2017-Sep-10 15:30N 59°47' E 004°42'4 8.8
2017-Sep-10 15:00N 59°52' E 004°41'9 8.8
2017-Sep-10 14:00N 60°00' E 004°39'5 9.2
2017-Sep-10 13:30N 60°05' E 004°37'5 9.5
2017-Sep-10 13:00N 60°09' E 004°36'5 9.0
2017-Sep-10 12:30N 60°14' E 004°35'4 8.2
2017-Sep-10 12:00N 60°18' E 004°34'4 7.9
2017-Sep-10 11:30N 60°22' E 004°33'4 7.9
2017-Sep-10 10:59N 60°26' E 004°32'4 7.9
2017-Sep-10 10:30N 60°30' E 004°31'4 8.1
2017-Sep-10 10:00N 60°34' E 004°30'4 8.3
2017-Sep-10 09:31N 60°38' E 004°30'4 8.2
2017-Sep-10 09:00N 60°42' E 004°28'4 7.6
2017-Sep-10 08:30N 60°46' E 004°26'4 7.5
2017-Sep-10 08:00N 60°49' E 004°23'4 7.5
2017-Sep-10 07:30N 60°53' E 004°22'4 7.2
2017-Sep-10 07:00N 60°57' E 004°21'4 7.7
2017-Sep-10 06:30N 61°00' E 004°22'4 8.3
2017-Sep-10 06:00N 61°04' E 004°23'4 8.7
2017-Sep-10 05:30N 61°09' E 004°24'5 9.2
2017-Sep-10 05:00N 61°13' E 004°24'4 9.2
2017-Sep-10 04:30N 61°18' E 004°24'5 9.6
2017-Sep-10 04:00N 61°23' E 004°24'5 9.8
2017-Sep-10 03:30N 61°28' E 004°24'510.3
2017-Sep-10 03:00N 61°33' E 004°25'5 9.9
2017-Sep-10 02:30N 61°38' E 004°26'4 9.0
2017-Sep-10 02:00N 61°41' E 004°33'510.0
2017-Sep-10 01:30N 61°42' E 004°44'5 9.3
2017-Sep-10 00:59N 61°44' E 004°53'4 8.3
2017-Sep-10 00:30N 61°40' E 004°58'0 0.7
2017-Sep-10 00:00N 61°40' E 004°58'0 0.0
2017-Sep-09 23:30N 61°40' E 004°58'0 0.0
2017-Sep-09 23:00N 61°40' E 004°58'0 0.0
2017-Sep-09 22:30N 61°40' E 004°58'0 0.0
2017-Sep-09 22:00N 61°40' E 004°58'0 0.0
2017-Sep-09 21:30N 61°40' E 004°58'0 0.0
2017-Sep-09 21:01N 61°40' E 004°58'0 0.0
2017-Sep-09 20:30N 61°40' E 004°58'0 0.0
2017-Sep-09 20:00N 61°40' E 004°58'0 0.0
2017-Sep-09 19:30N 61°40' E 004°58'0 0.0
2017-Sep-09 19:00N 61°40' E 004°58'0 0.0
2017-Sep-09 18:30N 61°40' E 004°58'0 0.0
2017-Sep-09 18:00N 61°40' E 004°58'0 0.0
2017-Sep-09 17:30N 61°40' E 004°58'0 0.0
2017-Sep-09 17:00N 61°40' E 004°58'0 0.0
2017-Sep-09 16:30N 61°40' E 004°58'0 0.0
2017-Sep-09 16:00N 61°40' E 004°58'0 0.0
2017-Sep-09 15:30N 61°40' E 004°58'0 0.0
2017-Sep-09 15:00N 61°40' E 004°58'0 0.0
2017-Sep-09 14:30N 61°40' E 004°58'0 0.1
2017-Sep-09 14:00N 61°40' E 004°58'4 8.0
2017-Sep-09 13:30N 61°44' E 004°54'5 9.2
2017-Sep-09 13:00N 61°42' E 004°44'5 9.7
2017-Sep-09 12:30N 61°43' E 004°34'5 9.2
2017-Sep-09 12:00N 61°48' E 004°35'  
Track history (hours):
 
Tides and Currents Weather Stations Pressure Air Temp Water Temp Dewpoint Dewpoint Depression Visibility Wind Speed Wind Dir Waves Ship Positions

Zeus

Last reported at 2017-Sep-19 11:41 UTC. Time now 2017-Sep-20 20:26 UTC.
Position N 53°37' W 000°07'.

Length 89 m; draft 3.6 m.

Type: Cargo ship. MMSI: 304011025.

Date/timePositionNaut miles runAvg speedWind from/ knotsBaromVisibWave heightAir tempDewpointWater temp
2017-Sep-19 11:41N 53°37' W 000°07'210.1
2017-Sep-19 11:30N 53°38' W 000°09'1 2.4
2017-Sep-19 10:59N 53°38' W 000°11'0 0.5
2017-Sep-19 10:30N 53°38' W 000°12'0 0.0
2017-Sep-19 10:00N 53°38' W 000°12'0 0.0
2017-Sep-19 09:30N 53°38' W 000°12'0 0.0
2017-Sep-19 09:00N 53°38' W 000°12'0 0.0
2017-Sep-19 05:20N 53°38' W 000°12'0 0.0
2017-Sep-19 04:41N 53°38' W 000°12'0 0.0
2017-Sep-19 04:25N 53°38' W 000°12'0 0.0
2017-Sep-19 04:00N 53°38' W 000°12'0 0.0
2017-Sep-19 03:30N 53°38' W 000°12'0 0.0
2017-Sep-19 02:59N 53°38' W 000°12'0 0.0
2017-Sep-19 02:30N 53°38' W 000°12'0 0.7
2017-Sep-19 02:00N 53°38' W 000°11'1 1.4
2017-Sep-19 01:30N 53°38' W 000°10'61 6.6
2017-Sep-18 16:11N 53°01' E 001°11'1 7.7
2017-Sep-18 16:00N 53°00' E 001°13'4 7.7
2017-Sep-18 15:30N 52°59' E 001°19'4 8.1
2017-Sep-18 15:00N 52°57' E 001°25'5 9.5
2017-Sep-18 14:30N 52°55' E 001°32'511.0
2017-Sep-18 14:00N 52°52' E 001°40'611.9
2017-Sep-18 13:30N 52°50' E 001°49'115 9.7
2017-Sep-18 01:38N 53°30' E 004°48'210.1
2017-Sep-18 01:24N 53°31' E 004°52'410.4
2017-Sep-18 01:00N 53°32' E 004°59'511.0
2017-Sep-18 00:30N 53°34' E 005°07'105 9.8
2017-Sep-17 13:46N 53°51' E 008°02'312.0
2017-Sep-17 13:30N 53°49' E 008°06'612.9
2017-Sep-17 13:00N 53°45' E 008°14'713.2
2017-Sep-17 12:30N 53°40' E 008°22'612.7
2017-Sep-17 12:00N 53°36' E 008°30'510.2
2017-Sep-17 11:30N 53°32' E 008°34'510.5
2017-Sep-17 11:00N 53°27' E 008°29'510.3
2017-Sep-17 10:30N 53°22' E 008°30'4 8.8
2017-Sep-17 10:01N 53°17' E 008°29'4 8.4
2017-Sep-17 09:30N 53°13' E 008°29'4 8.3
2017-Sep-17 09:00N 53°10' E 008°35'4 7.6
2017-Sep-17 08:30N 53°08' E 008°39'2 4.5
2017-Sep-17 08:00N 53°07' E 008°43'0 0.6
2017-Sep-17 07:30N 53°07' E 008°43'0 0.0
2017-Sep-17 06:58N 53°07' E 008°43'0 0.0
2017-Sep-17 06:28N 53°07' E 008°43'0 0.0
2017-Sep-17 05:58N 53°07' E 008°43'0 0.0
2017-Sep-17 05:30N 53°07' E 008°43'0 0.0
2017-Sep-17 04:58N 53°07' E 008°43'0 0.0
2017-Sep-17 04:28N 53°07' E 008°43'0 0.0
2017-Sep-17 03:59N 53°07' E 008°43'0 0.0
2017-Sep-17 03:30N 53°07' E 008°43'0 0.0
2017-Sep-17 02:59N 53°07' E 008°43'0 0.0
2017-Sep-17 02:30N 53°07' E 008°43'0 0.0
2017-Sep-17 01:59N 53°07' E 008°43'0 0.0
2017-Sep-17 01:29N 53°07' E 008°43'0 0.0
2017-Sep-17 00:54N 53°07' E 008°43'0 0.0
2017-Sep-17 00:30N 53°07' E 008°43'0 0.0
2017-Sep-16 23:59N 53°07' E 008°43'0 0.0
2017-Sep-16 23:28N 53°07' E 008°43'0 0.0
2017-Sep-16 22:58N 53°07' E 008°43'0 0.0
2017-Sep-16 22:28N 53°07' E 008°43'0 0.0
2017-Sep-16 21:59N 53°07' E 008°43'0 0.0
2017-Sep-16 21:29N 53°07' E 008°43'0 0.0
2017-Sep-16 20:58N 53°07' E 008°43'0 0.0
2017-Sep-16 20:30N 53°07' E 008°43'0 0.0
2017-Sep-16 20:00N 53°07' E 008°43'0 0.3
2017-Sep-16 19:30N 53°08' E 008°43'0 0.2
2017-Sep-16 19:00N 53°08' E 008°43'0 0.0
2017-Sep-16 18:29N 53°08' E 008°43'0 0.0
2017-Sep-16 17:59N 53°08' E 008°43'0 0.0
2017-Sep-16 17:24N 53°08' E 008°43'0 0.0
2017-Sep-16 17:00N 53°08' E 008°43'0 0.0
2017-Sep-16 16:29N 53°08' E 008°43'0 0.0
2017-Sep-16 15:59N 53°08' E 008°43'0 0.0
2017-Sep-16 15:28N 53°08' E 008°43'0 0.0
2017-Sep-16 15:01N 53°08' E 008°43'1 1.0
2017-Sep-16 14:31N 53°07' E 008°43'0 0.0
2017-Sep-16 14:01N 53°07' E 008°43'1 1.3
2017-Sep-16 13:31N 53°07' E 008°42'4 7.4
2017-Sep-16 13:00N 53°10' E 008°37'4 8.8
2017-Sep-16 12:30N 53°12' E 008°31'4 8.5
2017-Sep-16 12:01N 53°16' E 008°29'4 8.5
2017-Sep-16 11:30N 53°20' E 008°30'4 8.1
2017-Sep-16 11:00N 53°24' E 008°30'4 7.7
2017-Sep-16 10:30N 53°28' E 008°30'3 6.5
2017-Sep-16 10:00N 53°31' E 008°33'0 0.0
2017-Sep-16 09:25N 53°31' E 008°33'0 0.0
2017-Sep-16 09:00N 53°31' E 008°33'0 0.2
2017-Sep-16 08:28N 53°31' E 008°33'0 0.0
2017-Sep-16 08:00N 53°31' E 008°33'0 0.0
2017-Sep-16 07:29N 53°31' E 008°33'0 0.0
2017-Sep-16 06:54N 53°31' E 008°33'0 0.0
2017-Sep-16 06:25N 53°31' E 008°33'0 0.0
2017-Sep-16 05:59N 53°31' E 008°33'0 0.0
2017-Sep-16 05:24N 53°31' E 008°33'0 0.0
2017-Sep-16 04:58N 53°31' E 008°33'0 0.0
2017-Sep-16 04:23N 53°31' E 008°33'0 0.0
2017-Sep-16 03:55N 53°31' E 008°33'0 0.1
2017-Sep-16 03:30N 53°31' E 008°33'0 0.2
2017-Sep-16 02:58N 53°31' E 008°33'0 0.0
2017-Sep-16 02:30N 53°31' E 008°33'0 0.0
2017-Sep-16 01:58N 53°31' E 008°33'0 0.0
2017-Sep-16 01:27N 53°31' E 008°33'0 0.0
2017-Sep-16 00:59N 53°31' E 008°33'0 0.0
2017-Sep-16 00:30N 53°31' E 008°33'0 0.0
2017-Sep-15 23:58N 53°31' E 008°33'0 0.0
2017-Sep-15 23:29N 53°31' E 008°33'0 0.0
2017-Sep-15 22:54N 53°31' E 008°33'0 0.0
2017-Sep-15 22:30N 53°31' E 008°33'0 0.0
2017-Sep-15 21:58N 53°31' E 008°33'0 0.0
2017-Sep-15 21:24N 53°31' E 008°33'0 0.0
2017-Sep-15 21:00N 53°31' E 008°33'0 0.0
2017-Sep-15 20:28N 53°31' E 008°33'0 0.2
2017-Sep-15 19:57N 53°31' E 008°33'0 0.0
2017-Sep-15 19:29N 53°31' E 008°33'0 0.0
2017-Sep-15 19:00N 53°31' E 008°33'0 0.0
2017-Sep-15 18:30N 53°31' E 008°33'0 0.0
2017-Sep-15 17:58N 53°31' E 008°33'0 0.0
2017-Sep-15 17:26N 53°31' E 008°33'0 0.0
2017-Sep-15 17:00N 53°31' E 008°33'0 0.0
2017-Sep-15 16:28N 53°31' E 008°33'0 0.0
2017-Sep-15 15:59N 53°31' E 008°33'0 0.0
2017-Sep-15 15:30N 53°31' E 008°33'0 0.1
2017-Sep-15 15:00N 53°31' E 008°33'0 0.2
2017-Sep-15 14:29N 53°31' E 008°33'0 0.0
2017-Sep-15 13:59N 53°31' E 008°33'0 0.0
2017-Sep-15 13:25N 53°31' E 008°33'0 0.0
2017-Sep-15 12:55N 53°31' E 008°33'0 0.0
2017-Sep-15 12:20N 53°31' E 008°33'0 0.0
2017-Sep-15 11:56N 53°31' E 008°33'0 0.0
2017-Sep-15 11:27N 53°31' E 008°33'0 0.0
2017-Sep-15 10:57N 53°31' E 008°33'0 0.0
2017-Sep-15 10:30N 53°31' E 008°33'0 0.0
2017-Sep-15 09:58N 53°31' E 008°33'0 0.0
2017-Sep-15 09:27N 53°31' E 008°33'0 0.0
2017-Sep-15 08:54N 53°31' E 008°33'0 0.0
2017-Sep-15 08:30N 53°31' E 008°33'0 0.0
2017-Sep-15 07:59N 53°31' E 008°33'0 0.0
2017-Sep-15 07:29N 53°31' E 008°33'0 0.1
2017-Sep-15 06:53N 53°31' E 008°33'0 0.2
2017-Sep-15 06:29N 53°31' E 008°33'0 0.0
2017-Sep-15 05:59N 53°31' E 008°33'0 0.0
2017-Sep-15 05:28N 53°31' E 008°33'0 0.0
2017-Sep-15 04:59N 53°31' E 008°33'0 0.0
2017-Sep-15 04:25N 53°31' E 008°33'0 0.0
2017-Sep-15 03:58N 53°31' E 008°33'0 0.0
2017-Sep-15 03:25N 53°31' E 008°33'0 0.0
2017-Sep-15 02:58N 53°31' E 008°33'0 0.4
2017-Sep-15 02:30N 53°31' E 008°33'3 5.7
2017-Sep-15 02:00N 53°34' E 008°33'4 7.2
2017-Sep-15 01:30N 53°37' E 008°29'4 7.2
2017-Sep-15 01:00N 53°39' E 008°24'3 6.8
2017-Sep-15 00:30N 53°41' E 008°21'3 6.4
2017-Sep-15 00:00N 53°43' E 008°16'4 7.2
2017-Sep-14 23:30N 53°46' E 008°11'4 8.2
2017-Sep-14 23:00N 53°49' E 008°07'5 9.3
2017-Sep-14 22:30N 53°51' E 008°00'5 9.3
2017-Sep-14 21:59N 53°52' E 007°52'43 4.7
2017-Sep-14 12:54N 53°27' E 006°54'3 8.2
2017-Sep-14 12:30N 53°24' E 006°57'4 8.2
2017-Sep-14 12:00N 53°20' E 006°60'16 7.8
2017-Sep-14 09:57N 53°14' E 007°24'6 8.1
2017-Sep-14 09:13N 53°08' E 007°22'1 0.0
2017-Sep-13 03:26N 53°07' E 007°22'17 5.8
2017-Sep-13 00:30N 53°19' E 007°03'4 7.3
2017-Sep-13 00:00N 53°22' E 006°59'296 7.1
2017-Sep-11 06:34N 58°14' E 005°27'0 6.8
2017-Sep-11 06:30N 58°14' E 005°27'3 6.7
2017-Sep-11 06:00N 58°18' E 005°27'3 6.2
2017-Sep-11 05:30N 58°21' E 005°27'3 5.8
2017-Sep-11 05:00N 58°24' E 005°26'3 5.6
2017-Sep-11 04:30N 58°26' E 005°26'3 5.1
2017-Sep-11 04:01N 58°29' E 005°26'2 4.6
2017-Sep-11 03:30N 58°31' E 005°26'3 5.2
2017-Sep-11 03:00N 58°34' E 005°24'2 5.0
2017-Sep-11 02:31N 58°36' E 005°22'3 5.2
2017-Sep-11 02:00N 58°38' E 005°21'3 5.5
2017-Sep-11 01:30N 58°41' E 005°19'3 6.4
2017-Sep-11 01:01N 58°44' E 005°17'3 6.1
2017-Sep-11 00:30N 58°47' E 005°15'3 6.2
2017-Sep-11 00:00N 58°50' E 005°13'3 6.5
2017-Sep-10 23:31N 58°53' E 005°10'3 6.1
2017-Sep-10 23:00N 58°55' E 005°07'3 6.2
2017-Sep-10 22:30N 58°58' E 005°03'3 6.6
2017-Sep-10 22:00N 59°01' E 004°60'3 6.5
2017-Sep-10 21:30N 59°03' E 004°57'3 6.6
2017-Sep-10 21:00N 59°06' E 004°53'23 6.7
2017-Sep-10 17:37N 59°28' E 004°43'1 8.6
2017-Sep-10 17:30N 59°29' E 004°43'4 8.8
2017-Sep-10 17:00N 59°34' E 004°44'5 9.0
2017-Sep-10 16:30N 59°38' E 004°44'5 9.2
2017-Sep-10 16:00N 59°43' E 004°43'5 9.1
2017-Sep-10 15:30N 59°47' E 004°42'4 8.8
2017-Sep-10 15:00N 59°52' E 004°41'9 8.8
2017-Sep-10 14:00N 60°00' E 004°39'5 9.2
2017-Sep-10 13:30N 60°05' E 004°37'5 9.5
2017-Sep-10 13:00N 60°09' E 004°36'5 9.0
2017-Sep-10 12:30N 60°14' E 004°35'4 8.2
2017-Sep-10 12:00N 60°18' E 004°34'4 7.9
2017-Sep-10 11:30N 60°22' E 004°33'4 7.9
2017-Sep-10 10:59N 60°26' E 004°32'4 7.9
2017-Sep-10 10:30N 60°30' E 004°31'4 8.1
2017-Sep-10 10:00N 60°34' E 004°30'4 8.3
2017-Sep-10 09:31N 60°38' E 004°30'4 8.2
2017-Sep-10 09:00N 60°42' E 004°28'4 7.6
2017-Sep-10 08:30N 60°46' E 004°26'4 7.5
2017-Sep-10 08:00N 60°49' E 004°23'4 7.5
2017-Sep-10 07:30N 60°53' E 004°22'4 7.2
2017-Sep-10 07:00N 60°57' E 004°21'4 7.7
2017-Sep-10 06:30N 61°00' E 004°22'4 8.3
2017-Sep-10 06:00N 61°04' E 004°23'4 8.7
2017-Sep-10 05:30N 61°09' E 004°24'5 9.2
2017-Sep-10 05:00N 61°13' E 004°24'4 9.2
2017-Sep-10 04:30N 61°18' E 004°24'5 9.6
2017-Sep-10 04:00N 61°23' E 004°24'5 9.8
2017-Sep-10 03:30N 61°28' E 004°24'510.3
2017-Sep-10 03:00N 61°33' E 004°25'5 9.9
2017-Sep-10 02:30N 61°38' E 004°26'4 9.0
2017-Sep-10 02:00N 61°41' E 004°33'510.0
2017-Sep-10 01:30N 61°42' E 004°44'5 9.3
2017-Sep-10 00:59N 61°44' E 004°53'4 8.3
2017-Sep-10 00:30N 61°40' E 004°58'0 0.7
2017-Sep-10 00:00N 61°40' E 004°58'0 0.0
2017-Sep-09 23:30N 61°40' E 004°58'0 0.0
2017-Sep-09 23:00N 61°40' E 004°58'0 0.0
2017-Sep-09 22:30N 61°40' E 004°58'0 0.0
2017-Sep-09 22:00N 61°40' E 004°58'0 0.0
2017-Sep-09 21:30N 61°40' E 004°58'0 0.0
2017-Sep-09 21:01N 61°40' E 004°58'0 0.0
2017-Sep-09 20:30N 61°40' E 004°58'0 0.0
2017-Sep-09 20:00N 61°40' E 004°58'0 0.0
2017-Sep-09 19:30N 61°40' E 004°58'0 0.0
2017-Sep-09 19:00N 61°40' E 004°58'0 0.0
2017-Sep-09 18:30N 61°40' E 004°58'0 0.0
2017-Sep-09 18:00N 61°40' E 004°58'0 0.0
2017-Sep-09 17:30N 61°40' E 004°58'0 0.0
2017-Sep-09 17:00N 61°40' E 004°58'0 0.0
2017-Sep-09 16:30N 61°40' E 004°58'0 0.0
2017-Sep-09 16:00N 61°40' E 004°58'0 0.0
2017-Sep-09 15:30N 61°40' E 004°58'0 0.0
2017-Sep-09 15:00N 61°40' E 004°58'0 0.0
2017-Sep-09 14:30N 61°40' E 004°58'0 0.1
2017-Sep-09 14:00N 61°40' E 004°58'4 8.0
2017-Sep-09 13:30N 61°44' E 004°54'5 9.2
2017-Sep-09 13:00N 61°42' E 004°44'5 9.7
2017-Sep-09 12:30N 61°43' E 004°34'5 9.2
2017-Sep-09 12:00N 61°48' E 004°35'  

Dump ship's entire track history